Jewell, OH (43530)

6:43 AM EST on December 07, 2016 (GMT -0500)
Defiance Memorial | | Change Station

Elev 705 ft 41.34 °N, 84.43 °W | Updated 50 minutes ago

Clear
Clear
28 °F
Feels Like 21 °F
N
7
Wind Variable Wind from SW

Today
High -- | Low -- °F
--% Chance of Precip.
Yesterday
High -- | Low -- °F
Precip. -- in
Pressure 30.06 in
Visibility 10.0 miles
Clouds Clear
Windchill 21 °F
Dew Point 20 °F
Humidity 72%
Rainfall 0.00 in
Snow Depth Not available.
7:49 AM 5:07 PM
First Quarter, 51% visible
METAR KDFI 071053Z AUTO 23006KT 10SM CLR M02/M07 A3004 RMK AO2 SLP179 T10221067
Pressure 30.06 in
Visibility 10.0 miles
Clouds Clear
Windchill 21 °F
Dew Point 20 °F
Humidity 72%
Rainfall 0.00 in
Snow Depth Not available.
7:49 AM 5:07 PM
First Quarter, 51% visible
METAR KDFI 071053Z AUTO 23006KT 10SM CLR M02/M07 A3004 RMK AO2 SLP179 T10221067

10-Day Weather Forecast

Almanac

Astronomy

Dec. 07, 2016 Rise Set
Actual Time
Civil Twilight
Nautical Twilight
Astronomical Twilight
Moon
Length of Visible Light
Length of Day
Tomorrow will be .
, % of the Moon is Illuminated

Today's Extremes

State Highs State Lows

Community

WunderPhotos

Upload Photos

1,956,111 photos uploaded!

WunderBlog® & News

Nearby

Air Quality

  Air Quality AQ Index Pollutant
Not available.

Snow Depth

Station Depth Elevation

Earthquake Activity

City Distance Mag. Time & Date
Minimum magnitude displayed is 2.5.

Coastal Water Temperatures

Place Temperature

Stations

Nearby Weather Stations

Station Location Temp. Windchill Dew Point Humidity Wind Precip. Elev Updated Type
                   

Watches & Warnings

There are currently no watches in effect.